createdAt,value
2018-05-18T00:00:25.932Z,99.90
2018-05-18T00:02:53.491Z,99.90
2018-05-18T00:05:22.064Z,99.90
2018-05-18T00:07:49.619Z,99.90
2018-05-18T00:10:17.155Z,99.90
2018-05-18T00:12:44.713Z,99.90
2018-05-18T00:15:12.261Z,99.90
2018-05-18T00:17:39.987Z,99.90
2018-05-18T00:20:07.516Z,99.90
2018-05-18T00:22:35.871Z,99.90
2018-05-18T00:25:04.185Z,99.90
2018-05-18T00:27:31.852Z,99.90
2018-05-18T00:30:00.157Z,99.90
2018-05-18T00:32:28.471Z,99.90
2018-05-18T00:34:56.012Z,99.90
2018-05-18T00:37:23.618Z,99.90
2018-05-18T00:39:51.933Z,99.90
2018-05-18T00:42:19.652Z,99.90
2018-05-18T00:44:47.175Z,99.90
2018-05-18T00:47:14.719Z,99.90
2018-05-18T00:49:42.252Z,99.90
2018-05-18T00:52:09.828Z,99.90
2018-05-18T00:54:37.355Z,99.90
2018-05-18T00:57:04.919Z,99.90
2018-05-18T00:59:32.461Z,99.90
2018-05-18T01:02:00.016Z,99.90
2018-05-18T01:04:27.551Z,99.90
2018-05-18T01:06:55.080Z,99.90
2018-05-18T01:09:23.665Z,99.90
2018-05-18T01:11:51.204Z,99.90
2018-05-18T01:14:18.759Z,99.90
2018-05-18T01:16:46.324Z,99.90
2018-05-18T01:19:13.881Z,99.90
2018-05-18T01:21:41.412Z,99.90
2018-05-18T01:24:08.984Z,99.90
2018-05-18T01:26:37.293Z,99.90
2018-05-18T01:29:04.956Z,99.90
2018-05-18T01:31:32.488Z,99.90
2018-05-18T01:34:00.044Z,99.90
2018-05-18T01:36:27.676Z,99.90
2018-05-18T01:38:55.325Z,99.90
2018-05-18T01:41:24.168Z,99.90
2018-05-18T01:43:51.722Z,99.90
2018-05-18T01:46:19.292Z,99.90
2018-05-18T01:48:46.847Z,99.90
2018-05-18T01:51:14.443Z,99.90
2018-05-18T01:53:42.029Z,99.90
2018-05-18T01:56:09.668Z,99.90
2018-05-18T01:58:37.222Z,99.90
2018-05-18T02:01:04.756Z,99.90
2018-05-18T02:03:32.316Z,99.90
2018-05-18T02:05:59.849Z,99.90
2018-05-18T02:08:27.389Z,99.90
2018-05-18T02:10:54.906Z,99.90
2018-05-18T02:13:22.451Z,99.90
2018-05-18T02:15:49.975Z,99.90
2018-05-18T02:18:18.287Z,99.90
2018-05-18T02:20:45.982Z,99.90
2018-05-18T02:23:14.304Z,99.90
2018-05-18T02:25:41.832Z,99.90
2018-05-18T02:28:09.380Z,99.90
2018-05-18T02:30:36.904Z,99.90
2018-05-18T02:33:04.453Z,99.90
2018-05-18T02:35:31.987Z,99.90
2018-05-18T02:37:59.540Z,99.90
2018-05-18T02:40:27.063Z,99.90
2018-05-18T02:42:55.371Z,99.90
2018-05-18T02:45:23.036Z,99.90
2018-05-18T02:47:50.571Z,99.90
2018-05-18T02:50:18.120Z,99.90
2018-05-18T02:52:45.650Z,99.90
2018-05-18T02:55:13.243Z,99.90
2018-05-18T02:57:41.530Z,99.90
2018-05-18T03:00:09.074Z,99.90
2018-05-18T03:02:36.600Z,99.90
2018-05-18T03:05:04.910Z,99.90
2018-05-18T03:07:32.431Z,99.90
2018-05-18T03:09:59.979Z,99.90
2018-05-18T03:12:27.516Z,99.90
2018-05-18T03:14:55.106Z,99.90
2018-05-18T03:17:22.631Z,99.90
2018-05-18T03:19:50.178Z,99.90
2018-05-18T03:22:17.693Z,99.90
2018-05-18T03:24:45.243Z,99.90
2018-05-18T03:27:12.758Z,99.90
2018-05-18T03:29:41.071Z,99.90
2018-05-18T03:32:08.712Z,99.90
2018-05-18T03:34:36.250Z,99.90
2018-05-18T03:37:03.771Z,99.90
2018-05-18T03:39:31.326Z,99.90
2018-05-18T03:41:58.851Z,99.90
2018-05-18T03:44:26.692Z,99.90
2018-05-18T03:46:54.984Z,99.90
2018-05-18T03:49:22.552Z,99.90
2018-05-18T03:51:50.074Z,99.90
2018-05-18T03:54:17.633Z,99.90
2018-05-18T03:56:45.166Z,99.90
2018-05-18T03:59:12.732Z,99.90
2018-05-18T04:01:52.406Z,99.90
2018-05-18T04:04:32.584Z,99.90
2018-05-18T04:07:11.927Z,99.90
2018-05-18T04:09:39.470Z,99.90
2018-05-18T04:12:07.010Z,99.90
2018-05-18T04:14:34.569Z,99.90
2018-05-18T04:17:02.086Z,99.90
2018-05-18T04:19:29.667Z,99.90
2018-05-18T04:21:57.191Z,99.90
2018-05-18T04:24:24.755Z,99.90
2018-05-18T04:26:52.275Z,99.90
2018-05-18T04:29:19.907Z,99.90
2018-05-18T04:31:47.479Z,99.90
2018-05-18T04:34:15.013Z,99.90
2018-05-18T04:36:42.569Z,99.90
2018-05-18T04:39:10.496Z,99.90
2018-05-18T04:41:38.191Z,99.90
2018-05-18T04:44:06.512Z,99.90
2018-05-18T04:46:34.074Z,99.90
2018-05-18T04:49:01.699Z,99.90
2018-05-18T04:51:29.248Z,99.90
2018-05-18T04:53:56.783Z,99.90
2018-05-18T04:56:24.331Z,99.90
2018-05-18T04:58:51.981Z,99.90
2018-05-18T05:01:20.243Z,99.60
2018-05-18T05:03:47.976Z,99.60
2018-05-18T05:06:15.546Z,99.60
2018-05-18T05:08:43.083Z,99.70
2018-05-18T05:11:11.452Z,99.50
2018-05-18T05:13:39.788Z,99.50
2018-05-18T05:16:07.348Z,99.50
2018-05-18T05:18:34.872Z,99.70
2018-05-18T05:21:02.481Z,99.80
2018-05-18T05:23:30.776Z,99.80
2018-05-18T05:25:58.332Z,99.80
2018-05-18T05:28:25.863Z,99.50
2018-05-18T05:30:53.424Z,99.10
2018-05-18T05:33:20.956Z,98.80
2018-05-18T05:35:48.509Z,98.70
2018-05-18T05:38:16.107Z,98.80
2018-05-18T05:40:43.658Z,98.70
2018-05-18T05:43:12.013Z,98.70
2018-05-18T05:45:40.355Z,98.30
2018-05-18T05:48:07.895Z,98.30
2018-05-18T05:50:35.449Z,98.20
2018-05-18T05:53:03.008Z,97.90
2018-05-18T05:55:30.535Z,98.00
2018-05-18T05:57:58.091Z,97.70
2018-05-18T06:00:25.607Z,97.60
2018-05-18T06:02:53.178Z,98.00
2018-05-18T06:05:20.759Z,98.10
2018-05-18T06:07:48.287Z,98.10
2018-05-18T06:10:16.602Z,97.60
2018-05-18T06:12:44.161Z,97.90
2018-05-18T06:15:11.687Z,97.50
2018-05-18T06:17:39.234Z,97.80
2018-05-18T06:20:06.772Z,97.50
2018-05-18T06:22:34.352Z,97.50
2018-05-18T06:25:02.020Z,97.10
2018-05-18T06:27:30.526Z,96.90
2018-05-18T06:29:58.075Z,96.90
2018-05-18T06:32:25.727Z,96.80
2018-05-18T06:34:53.271Z,96.80
2018-05-18T06:37:20.837Z,96.80
2018-05-18T06:39:48.371Z,96.90
2018-05-18T06:42:15.924Z,96.50
2018-05-18T06:44:43.550Z,96.30
2018-05-18T06:47:11.094Z,96.40
2018-05-18T06:49:38.637Z,96.20
2018-05-18T06:52:06.192Z,95.90
2018-05-18T06:54:33.710Z,95.60
2018-05-18T06:57:01.259Z,95.80
2018-05-18T06:59:28.839Z,95.70
2018-05-18T07:01:56.463Z,95.50
2018-05-18T07:04:23.991Z,95.40
2018-05-18T07:06:51.544Z,95.20
2018-05-18T07:09:19.073Z,95.10
2018-05-18T07:11:47.708Z,95.00
2018-05-18T07:14:15.583Z,94.80
2018-05-18T07:16:43.148Z,94.80
2018-05-18T07:19:10.807Z,94.70
2018-05-18T07:21:38.351Z,94.50
2018-05-18T07:24:05.935Z,94.10
2018-05-18T07:26:33.468Z,93.10
2018-05-18T07:29:01.774Z,93.00
2018-05-18T07:31:29.304Z,93.10
2018-05-18T07:33:57.630Z,92.20
2018-05-18T07:36:25.358Z,92.20
2018-05-18T07:38:52.905Z,91.50
2018-05-18T07:41:20.445Z,91.80
2018-05-18T07:43:49.153Z,91.90
2018-05-18T07:46:17.575Z,91.00
2018-05-18T07:48:46.267Z,91.20
2018-05-18T07:51:13.902Z,91.10
2018-05-18T07:53:41.493Z,90.90
2018-05-18T07:56:09.851Z,90.70
2018-05-18T07:58:37.403Z,90.70
2018-05-18T08:01:05.713Z,90.00
2018-05-18T08:03:33.339Z,90.00
2018-05-18T08:06:01.114Z,89.50
2018-05-18T08:08:28.727Z,89.40
2018-05-18T08:10:57.443Z,89.80
2018-05-18T08:13:26.203Z,90.20
2018-05-18T08:15:54.157Z,90.20
2018-05-18T08:18:22.523Z,90.70
2018-05-18T08:20:50.269Z,90.50
2018-05-18T08:23:17.915Z,90.00
2018-05-18T08:25:45.459Z,90.00
2018-05-18T08:28:14.076Z,89.40
2018-05-18T08:30:53.488Z,87.90
2018-05-18T08:33:21.359Z,86.80
2018-05-18T08:35:48.915Z,87.00
2018-05-18T08:38:16.545Z,86.70
2018-05-18T08:40:44.854Z,85.30
2018-05-18T08:43:12.402Z,85.30
2018-05-18T08:45:39.930Z,84.70
2018-05-18T08:48:07.489Z,84.10
2018-05-18T08:50:35.011Z,83.60
2018-05-18T08:53:02.559Z,82.80
2018-05-18T08:55:30.079Z,82.70
2018-05-18T08:57:58.402Z,84.50
2018-05-18T09:00:26.019Z,84.40
2018-05-18T09:02:53.582Z,85.10
2018-05-18T09:05:21.637Z,83.90
2018-05-18T09:07:49.185Z,84.60
2018-05-18T09:10:16.788Z,83.00
2018-05-18T09:12:44.315Z,83.00
2018-05-18T09:15:12.623Z,83.50
2018-05-18T09:17:40.281Z,83.50
2018-05-18T09:20:07.826Z,84.50
2018-05-18T09:22:35.354Z,85.40
2018-05-18T09:25:02.922Z,85.50
2018-05-18T09:27:31.228Z,84.70
2018-05-18T09:29:58.815Z,84.70
2018-05-18T09:32:26.427Z,84.60
2018-05-18T09:34:53.975Z,84.70
2018-05-18T09:37:21.511Z,85.40
2018-05-18T09:39:49.818Z,84.30
2018-05-18T09:42:17.459Z,84.30
2018-05-18T09:44:45.032Z,84.00
2018-05-18T09:47:12.598Z,84.40
2018-05-18T09:49:40.931Z,84.80
2018-05-18T09:52:08.470Z,84.80
2018-05-18T09:54:36.995Z,84.20
2018-05-18T09:57:04.479Z,84.20
2018-05-18T09:59:32.028Z,84.70
2018-05-18T10:01:59.559Z,85.70
2018-05-18T10:04:27.110Z,85.20
2018-05-18T10:06:54.646Z,85.30
2018-05-18T10:09:22.533Z,84.70
2018-05-18T10:11:50.124Z,85.10
2018-05-18T10:14:17.688Z,85.40
2018-05-18T10:16:45.255Z,86.10
2018-05-18T10:19:12.873Z,85.70
2018-05-18T10:21:40.408Z,84.50
2018-05-18T10:24:08.055Z,84.10
2018-05-18T10:26:35.622Z,83.10
2018-05-18T10:29:03.259Z,83.50
2018-05-18T10:31:30.879Z,84.50
2018-05-18T10:33:58.742Z,83.20
2018-05-18T10:36:26.312Z,82.80
2018-05-18T10:38:53.846Z,81.60
2018-05-18T10:41:21.403Z,81.20
2018-05-18T10:43:48.947Z,81.20
2018-05-18T10:46:16.742Z,80.20
2018-05-18T10:48:45.164Z,79.60
2018-05-18T10:51:13.494Z,79.70
2018-05-18T10:53:41.043Z,79.70
2018-05-18T10:56:08.606Z,78.90
2018-05-18T10:58:38.562Z,79.70
2018-05-18T11:01:06.243Z,79.70
2018-05-18T11:03:33.789Z,79.40
2018-05-18T11:06:01.354Z,79.40
2018-05-18T11:08:28.884Z,80.70
2018-05-18T11:10:56.487Z,79.70
2018-05-18T11:13:24.863Z,79.20
2018-05-18T11:15:52.364Z,79.20
2018-05-18T11:18:20.677Z,79.90
2018-05-18T11:20:48.236Z,79.90
2018-05-18T11:23:16.911Z,81.20
2018-05-18T11:25:44.476Z,80.90
2018-05-18T11:28:12.022Z,80.50
2018-05-18T11:30:39.577Z,79.70
2018-05-18T11:33:07.174Z,80.20
2018-05-18T11:35:34.768Z,80.80
2018-05-18T11:38:03.244Z,79.10
2018-05-18T11:40:30.848Z,79.00
2018-05-18T11:42:58.377Z,79.00
2018-05-18T11:45:25.968Z,78.60
2018-05-18T11:47:53.490Z,78.90
2018-05-18T11:50:21.048Z,79.70
2018-05-18T11:52:48.575Z,80.30
2018-05-18T11:55:16.416Z,80.10
2018-05-18T11:57:44.003Z,80.70
2018-05-18T12:00:11.595Z,81.30
2018-05-18T12:02:40.563Z,81.70
2018-05-18T12:05:09.524Z,81.70
2018-05-18T12:07:37.852Z,82.90
2018-05-18T12:10:05.485Z,82.70
2018-05-18T12:12:33.082Z,82.10
2018-05-18T12:15:00.627Z,81.80
2018-05-18T12:17:28.971Z,82.60
2018-05-18T12:19:57.268Z,83.30
2018-05-18T12:22:24.940Z,83.20
2018-05-18T12:24:52.455Z,84.00
2018-05-18T12:27:20.008Z,84.20
2018-05-18T12:29:47.539Z,84.70
2018-05-18T12:32:15.184Z,85.10
2018-05-18T12:34:42.868Z,85.00
2018-05-18T12:37:10.414Z,84.10
2018-05-18T12:39:38.153Z,83.30
2018-05-18T12:42:05.708Z,82.70
2018-05-18T12:44:33.410Z,81.00
2018-05-18T12:47:00.903Z,79.70
2018-05-18T12:49:28.469Z,79.20
2018-05-18T12:51:56.086Z,78.60
2018-05-18T12:54:23.612Z,77.90
2018-05-18T12:56:51.179Z,79.20
2018-05-18T12:59:18.707Z,80.70
2018-05-18T13:01:46.482Z,81.60
2018-05-18T13:04:14.011Z,81.00
2018-05-18T13:06:41.557Z,81.70
2018-05-18T13:09:09.122Z,81.40
2018-05-18T13:11:36.892Z,80.60
2018-05-18T13:14:05.196Z,80.70
2018-05-18T13:16:32.862Z,80.00
2018-05-18T13:19:00.427Z,80.80
2018-05-18T13:21:27.977Z,80.50
2018-05-18T13:23:55.527Z,80.10
2018-05-18T13:26:23.345Z,79.90
2018-05-18T13:28:51.200Z,79.90
2018-05-18T13:31:18.944Z,80.40
2018-05-18T13:33:46.517Z,80.30
2018-05-18T13:36:14.058Z,81.00
2018-05-18T13:38:42.503Z,81.30
2018-05-18T13:41:09.997Z,81.20
2018-05-18T13:43:38.330Z,82.00
2018-05-18T13:46:05.854Z,81.90
2018-05-18T13:48:33.417Z,81.50
2018-05-18T13:51:00.949Z,81.70
2018-05-18T13:53:28.492Z,80.80
2018-05-18T13:55:56.014Z,80.70
2018-05-18T13:58:23.563Z,79.90
2018-05-18T14:00:51.091Z,80.40
2018-05-18T14:03:18.648Z,81.70
2018-05-18T14:05:46.821Z,82.30
2018-05-18T14:08:14.380Z,83.10
2018-05-18T14:10:43.246Z,83.20
2018-05-18T14:13:10.815Z,83.10
2018-05-18T14:15:38.330Z,84.00
2018-05-18T14:18:05.924Z,84.90
2018-05-18T14:20:34.232Z,85.60
2018-05-18T14:23:01.784Z,85.50
2018-05-18T14:25:29.636Z,86.00
2018-05-18T14:27:57.295Z,86.40
2018-05-18T14:30:24.933Z,86.30
2018-05-18T14:32:52.515Z,86.80
2018-05-18T14:35:20.809Z,88.40
2018-05-18T14:37:48.482Z,88.40
2018-05-18T14:40:16.712Z,88.90
2018-05-18T14:42:44.403Z,89.00
2018-05-18T14:45:11.970Z,89.50
2018-05-18T14:47:39.528Z,90.00
2018-05-18T14:50:07.839Z,89.50
2018-05-18T14:52:35.395Z,89.50
2018-05-18T14:55:03.143Z,90.10
2018-05-18T14:57:30.719Z,90.20
2018-05-18T14:59:58.379Z,90.40
2018-05-18T15:02:26.717Z,90.40
2018-05-18T15:04:55.064Z,90.50
2018-05-18T15:07:22.691Z,90.50
2018-05-18T15:09:50.384Z,90.40
2018-05-18T15:12:18.851Z,90.90
2018-05-18T15:14:46.455Z,90.80
2018-05-18T15:17:13.973Z,91.00
2018-05-18T15:19:41.564Z,91.10
2018-05-18T15:22:09.187Z,91.10
2018-05-18T15:24:36.822Z,91.10
2018-05-18T15:27:04.380Z,91.10
2018-05-18T15:29:31.931Z,91.20
2018-05-18T15:31:59.499Z,91.20
2018-05-18T15:34:27.060Z,91.20
2018-05-18T15:36:55.482Z,91.30
2018-05-18T15:39:23.050Z,91.20
2018-05-18T15:41:50.598Z,91.40
2018-05-18T15:44:18.248Z,91.90
2018-05-18T15:46:45.800Z,92.00
2018-05-18T15:49:15.029Z,92.20
2018-05-18T15:51:42.504Z,92.10
2018-05-18T15:54:10.658Z,92.40
2018-05-18T15:56:38.183Z,92.70
2018-05-18T15:59:05.839Z,92.90
2018-05-18T16:01:33.691Z,92.80
2018-05-18T16:04:01.243Z,92.80
2018-05-18T16:06:28.767Z,92.90
2018-05-18T16:08:56.336Z,93.30
2018-05-18T16:11:23.887Z,93.50
2018-05-18T16:13:51.432Z,93.60
2018-05-18T16:16:19.008Z,94.00
2018-05-18T16:18:47.339Z,94.70
2018-05-18T16:21:14.955Z,94.70
2018-05-18T16:23:42.483Z,95.00
2018-05-18T16:26:10.029Z,95.30
2018-05-18T16:28:37.861Z,95.40
2018-05-18T16:31:06.272Z,95.70
2018-05-18T16:33:34.850Z,95.70
2018-05-18T16:36:02.382Z,95.70
2018-05-18T16:38:29.903Z,95.90
2018-05-18T16:40:57.450Z,96.20
2018-05-18T16:43:24.974Z,96.30
2018-05-18T16:45:53.365Z,96.50
2018-05-18T16:48:20.904Z,96.40
2018-05-18T16:50:48.573Z,96.40
2018-05-18T16:53:16.108Z,96.30
2018-05-18T16:55:43.768Z,95.90
2018-05-18T16:58:11.285Z,96.00
2018-05-18T17:00:38.882Z,96.00
2018-05-18T17:03:07.286Z,95.80
2018-05-18T17:05:34.872Z,95.80
2018-05-18T17:08:02.444Z,96.10
2018-05-18T17:10:31.587Z,96.20
2018-05-18T17:12:59.165Z,96.30
2018-05-18T17:15:26.789Z,96.50
2018-05-18T17:17:55.115Z,96.60
2018-05-18T17:20:22.671Z,96.50
2018-05-18T17:22:50.229Z,96.40
2018-05-18T17:25:17.781Z,96.50
2018-05-18T17:27:45.631Z,96.20
2018-05-18T17:30:13.207Z,96.40
2018-05-18T17:32:40.755Z,96.40
2018-05-18T17:35:08.311Z,96.20
2018-05-18T17:37:36.620Z,94.70
2018-05-18T17:40:04.175Z,94.70
2018-05-18T17:42:31.694Z,93.80
2018-05-18T17:44:59.226Z,93.80
2018-05-18T17:47:26.788Z,94.20
2018-05-18T17:49:54.345Z,94.60
2018-05-18T17:52:21.920Z,95.10
2018-05-18T17:54:49.459Z,95.70
2018-05-18T17:57:17.036Z,96.10
2018-05-18T17:59:45.339Z,96.80
2018-05-18T18:02:12.854Z,96.80
2018-05-18T18:04:40.427Z,97.30
2018-05-18T18:07:08.105Z,97.30
2018-05-18T18:09:35.646Z,97.60
2018-05-18T18:12:03.204Z,97.80
2018-05-18T18:14:30.745Z,98.10
2018-05-18T18:16:58.335Z,98.10
2018-05-18T18:19:25.876Z,98.30
2018-05-18T18:21:53.427Z,98.40
2018-05-18T18:24:20.960Z,98.60
2018-05-18T18:26:49.359Z,99.00
2018-05-18T18:29:16.881Z,99.00
2018-05-18T18:31:44.544Z,99.10
2018-05-18T18:34:12.064Z,99.30
2018-05-18T18:36:39.611Z,99.50
2018-05-18T18:39:07.176Z,99.70
2018-05-18T18:41:34.744Z,99.70
2018-05-18T18:44:02.267Z,99.80
2018-05-18T18:46:29.925Z,99.90
2018-05-18T18:48:57.466Z,99.90
2018-05-18T18:51:25.043Z,99.90
2018-05-18T18:53:53.482Z,99.90
2018-05-18T18:56:21.044Z,99.90
2018-05-18T18:58:49.907Z,99.90
2018-05-18T19:01:17.432Z,99.90
2018-05-18T19:03:44.954Z,99.90
2018-05-18T19:06:12.522Z,99.90
2018-05-18T19:08:41.587Z,99.90
2018-05-18T19:11:09.145Z,99.90
2018-05-18T19:13:38.826Z,99.90
2018-05-18T19:16:06.475Z,99.90
2018-05-18T19:18:33.954Z,99.90
2018-05-18T19:21:01.573Z,99.90
2018-05-18T19:23:29.149Z,99.90
2018-05-18T19:25:56.711Z,99.90
2018-05-18T19:28:25.040Z,99.90
2018-05-18T19:30:52.604Z,99.90
2018-05-18T19:33:20.174Z,99.90
2018-05-18T19:35:48.475Z,99.90
2018-05-18T19:38:16.146Z,99.90
2018-05-18T19:40:43.695Z,99.90
2018-05-18T19:43:11.273Z,99.90
2018-05-18T19:45:39.674Z,99.90
2018-05-18T19:48:07.537Z,99.90
2018-05-18T19:50:35.895Z,99.90
2018-05-18T19:53:03.438Z,99.90
2018-05-18T19:55:31.091Z,99.90
2018-05-18T19:57:58.646Z,99.90
2018-05-18T20:00:26.191Z,99.90
2018-05-18T20:02:53.745Z,99.90
2018-05-18T20:05:21.335Z,99.90
2018-05-18T20:07:48.912Z,99.90
2018-05-18T20:10:16.660Z,99.90
2018-05-18T20:12:45.252Z,99.90
2018-05-18T20:15:12.780Z,99.90
2018-05-18T20:17:41.248Z,99.90
2018-05-18T20:20:08.780Z,99.90
2018-05-18T20:22:36.324Z,99.90
2018-05-18T20:25:04.065Z,99.90
2018-05-18T20:27:31.705Z,99.90
2018-05-18T20:29:59.303Z,99.90
2018-05-18T20:32:27.624Z,99.90
2018-05-18T20:34:55.142Z,99.90
2018-05-18T20:37:22.698Z,99.90
2018-05-18T20:39:50.259Z,99.90
2018-05-18T20:42:17.812Z,99.90
2018-05-18T20:44:45.804Z,99.90
2018-05-18T20:47:14.139Z,99.90
2018-05-18T20:49:41.683Z,99.90
2018-05-18T20:52:09.434Z,99.90
2018-05-18T20:54:37.792Z,99.90
2018-05-18T20:57:05.432Z,99.90
2018-05-18T20:59:33.031Z,99.90
2018-05-18T21:02:00.572Z,99.90
2018-05-18T21:04:28.130Z,99.90
2018-05-18T21:06:55.832Z,99.90
2018-05-18T21:09:23.474Z,99.90
2018-05-18T21:11:51.000Z,99.90
2018-05-18T21:14:18.561Z,99.90
2018-05-18T21:16:46.104Z,99.90
2018-05-18T21:19:13.756Z,99.90
2018-05-18T21:21:41.834Z,99.90
2018-05-18T21:24:10.152Z,99.90
2018-05-18T21:26:39.134Z,99.90
2018-05-18T21:29:06.739Z,99.90
2018-05-18T21:31:35.129Z,99.90
2018-05-18T21:34:02.712Z,99.90
2018-05-18T21:36:30.563Z,99.90
2018-05-18T21:38:58.144Z,99.90
2018-05-18T21:41:26.480Z,99.90
2018-05-18T21:43:55.015Z,99.90
2018-05-18T21:46:22.530Z,99.90
2018-05-18T21:48:50.072Z,99.90
2018-05-18T21:51:18.996Z,99.90
2018-05-18T21:53:47.036Z,99.90
2018-05-18T21:56:14.563Z,99.90
2018-05-18T21:58:42.284Z,99.90
2018-05-18T22:01:11.291Z,99.90
2018-05-18T22:03:38.834Z,99.90
2018-05-18T22:06:06.404Z,99.90
2018-05-18T22:08:34.005Z,99.90
2018-05-18T22:11:01.584Z,99.90
2018-05-18T22:13:29.135Z,99.90
2018-05-18T22:15:57.024Z,99.90
2018-05-18T22:18:25.448Z,99.90
2018-05-18T22:20:52.983Z,99.90
2018-05-18T22:23:20.535Z,99.90
2018-05-18T22:25:48.054Z,99.90
2018-05-18T22:28:15.627Z,99.90
2018-05-18T22:30:43.226Z,99.90
2018-05-18T22:33:10.877Z,99.90
2018-05-18T22:35:38.501Z,99.90
2018-05-18T22:38:06.115Z,99.90
2018-05-18T22:40:33.759Z,99.90
2018-05-18T22:43:01.278Z,99.90
2018-05-18T22:45:28.826Z,99.90
2018-05-18T22:47:56.379Z,99.90
2018-05-18T22:50:23.942Z,99.90
2018-05-18T22:52:51.482Z,99.90
2018-05-18T22:55:19.035Z,99.90
2018-05-18T22:57:46.818Z,99.90
2018-05-18T23:00:23.949Z,99.90
2018-05-18T23:02:51.471Z,99.90
2018-05-18T23:05:19.068Z,99.90
2018-05-18T23:07:46.870Z,99.90
2018-05-18T23:10:14.426Z,99.90
2018-05-18T23:12:42.931Z,99.90
2018-05-18T23:15:11.248Z,99.90
2018-05-18T23:17:38.783Z,99.90
2018-05-18T23:20:06.348Z,99.90
2018-05-18T23:22:33.880Z,99.90
2018-05-18T23:25:02.866Z,99.90
2018-05-18T23:27:30.422Z,99.90
2018-05-18T23:29:58.196Z,99.90
2018-05-18T23:32:26.513Z,99.90
2018-05-18T23:34:54.058Z,99.90
2018-05-18T23:37:21.738Z,99.90
2018-05-18T23:39:49.324Z,99.90
2018-05-18T23:42:16.876Z,99.90
2018-05-18T23:44:45.295Z,99.90
2018-05-18T23:47:13.322Z,99.90
2018-05-18T23:49:40.973Z,99.90
2018-05-18T23:52:08.531Z,99.90
2018-05-18T23:54:36.056Z,99.90
2018-05-18T23:57:03.680Z,99.90
2018-05-18T23:59:31.261Z,99.90
